Time;durP1;ratioP1;P1;durP2;ratioP2;P2;SDS_P1;SDS_P2;PMS_P1;PMS_P2;Temp;Humidity;BMP_temperature;BMP_pressure;BME280_temperature;BME280_humidity;BME280_pressure;Samples;Min_cycle;Max_cycle;Signal;HPM_P1;HPM_P2
2024/01/04 00:01:34;;;;;;;4.20;2.55;;;;;;;;;;5056077;28;20477;-70
2024/01/04 00:03:59;;;;;;;4.25;2.63;;;;;;;;;;5053752;28;20110;-73
2024/01/04 00:06:25;;;;;;;3.97;2.50;;;;;;;;;;5059100;28;20032;-71
2024/01/04 00:08:50;;;;;;;4.18;2.50;;;;;;;;;;5049576;28;20112;-71
2024/01/04 00:11:15;;;;;;;3.65;2.40;;;;;;;;;;5054359;28;20400;-71
2024/01/04 00:13:41;;;;;;;4.43;2.60;;;;;;;;;;5048291;28;20108;-71
2024/01/04 00:16:10;;;;;;;4.10;2.40;;;;;;;;;;5043524;28;20767;-72
2024/01/04 00:18:36;;;;;;;3.80;2.65;;;;;;;;;;5051126;28;20098;-70
2024/01/04 00:21:02;;;;;;;3.45;2.45;;;;;;;;;;5030505;28;20448;-72
2024/01/04 00:23:28;;;;;;;4.03;2.70;;;;;;;;;;5053354;28;20045;-72
2024/01/04 00:25:53;;;;;;;4.55;3.00;;;;;;;;;;5049613;28;20475;-72
2024/01/04 00:28:19;;;;;;;3.47;2.40;;;;;;;;;;5061009;28;20031;-72
2024/01/04 00:30:44;;;;;;;4.30;2.88;;;;;;;;;;5068769;28;20019;-72
2024/01/04 00:33:09;;;;;;;3.50;2.45;;;;;;;;;;5056736;28;20021;-72
2024/01/04 00:35:35;;;;;;;4.45;3.00;;;;;;;;;;5057388;28;20017;-72
2024/01/04 00:38:00;;;;;;;3.03;2.25;;;;;;;;;;5049890;28;20468;-72
2024/01/04 00:40:25;;;;;;;3.97;2.70;;;;;;;;;;5050436;28;20031;-72
2024/01/04 00:42:51;;;;;;;3.75;2.53;;;;;;;;;;5054665;28;20528;-72
2024/01/04 00:45:16;;;;;;;3.58;2.40;;;;;;;;;;5054505;28;20024;-72
2024/01/04 00:47:41;;;;;;;3.00;2.30;;;;;;;;;;5081504;28;20021;-72
2024/01/04 00:50:07;;;;;;;4.13;2.40;;;;;;;;;;5091538;28;20017;-72
2024/01/04 00:52:32;;;;;;;3.80;2.63;;;;;;;;;;5067225;28;20089;-72
2024/01/04 00:54:57;;;;;;;4.65;2.35;;;;;;;;;;5064653;28;20016;-72
2024/01/04 00:57:23;;;;;;;4.32;2.88;;;;;;;;;;5057671;28;20021;-72
2024/01/04 00:59:48;;;;;;;3.28;2.42;;;;;;;;;;5062613;28;20036;-72
2024/01/04 01:02:13;;;;;;;4.32;2.72;;;;;;;;;;5054692;28;20033;-72
2024/01/04 01:04:38;;;;;;;3.75;2.65;;;;;;;;;;5048521;28;20420;-72
2024/01/04 01:07:04;;;;;;;3.95;2.65;;;;;;;;;;5049416;28;20103;-72
2024/01/04 01:09:29;;;;;;;4.38;2.75;;;;;;;;;;5058006;28;20083;-72
2024/01/04 01:11:54;;;;;;;3.80;2.50;;;;;;;;;;5052611;28;20013;-71
2024/01/04 01:14:20;;;;;;;3.63;2.60;;;;;;;;;;5053183;28;20479;-71
2024/01/04 01:16:45;;;;;;;3.83;2.58;;;;;;;;;;5044988;28;20024;-72
2024/01/04 01:19:11;;;;;;;3.85;2.60;;;;;;;;;;5043442;28;20060;-71
2024/01/04 01:21:37;;;;;;;4.07;2.45;;;;;;;;;;5053805;28;20016;-71
2024/01/04 01:24:02;;;;;;;3.85;2.72;;;;;;;;;;5040240;28;20013;-72
2024/01/04 01:26:28;;;;;;;3.90;2.42;;;;;;;;;;5051176;28;20070;-72
2024/01/04 01:28:53;;;;;;;4.28;2.53;;;;;;;;;;5055907;28;20043;-71
2024/01/04 01:31:19;;;;;;;3.55;2.40;;;;;;;;;;5063067;28;20045;-72
2024/01/04 01:33:45;;;;;;;4.05;2.60;;;;;;;;;;5050519;28;20132;-72
2024/01/04 01:36:10;;;;;;;4.15;2.65;;;;;;;;;;5049132;28;20044;-72
2024/01/04 01:38:35;;;;;;;4.85;2.40;;;;;;;;;;5052535;28;20036;-70
2024/01/04 01:41:01;;;;;;;3.25;2.50;;;;;;;;;;5056535;28;20508;-72
2024/01/04 01:43:26;;;;;;;4.05;3.10;;;;;;;;;;5040854;28;20037;-72
2024/01/04 01:45:51;;;;;;;4.32;2.47;;;;;;;;;;5050905;28;20048;-72
2024/01/04 01:48:17;;;;;;;3.75;2.42;;;;;;;;;;5050955;28;20032;-72
2024/01/04 01:50:42;;;;;;;3.85;2.38;;;;;;;;;;5050845;28;20089;-70
2024/01/04 01:53:07;;;;;;;3.47;2.50;;;;;;;;;;5054849;28;20041;-70
2024/01/04 01:55:34;;;;;;;3.72;2.67;;;;;;;;;;5052131;28;20133;-70
2024/01/04 01:57:59;;;;;;;2.88;2.28;;;;;;;;;;5065053;28;20565;-72
2024/01/04 02:00:24;;;;;;;3.97;2.75;;;;;;;;;;5030941;28;20029;-72
2024/01/04 02:02:50;;;;;;;3.72;2.47;;;;;;;;;;5050040;28;20098;-71
2024/01/04 02:05:16;;;;;;;3.40;2.50;;;;;;;;;;5053676;28;20560;-72
2024/01/04 02:07:42;;;;;;;4.78;2.78;;;;;;;;;;5048729;28;20108;-72
2024/01/04 02:10:07;;;;;;;3.88;2.83;;;;;;;;;;5064503;28;20098;-72
2024/01/04 02:12:33;;;;;;;3.47;2.47;;;;;;;;;;5052459;28;20543;-71
2024/01/04 02:14:58;;;;;;;3.65;2.75;;;;;;;;;;5036022;28;20035;-71
2024/01/04 02:17:25;;;;;;;4.40;3.20;;;;;;;;;;5041957;28;20045;-72
2024/01/04 02:19:51;;;;;;;3.03;2.30;;;;;;;;;;5059098;28;20033;-71
2024/01/04 02:22:17;;;;;;;3.88;2.80;;;;;;;;;;5051949;28;20036;-72
2024/01/04 02:24:42;;;;;;;3.63;2.45;;;;;;;;;;5047878;28;20444;-72
2024/01/04 02:27:08;;;;;;;3.17;2.22;;;;;;;;;;5041857;28;20163;-72
2024/01/04 02:29:33;;;;;;;3.63;2.60;;;;;;;;;;5041799;28;20043;-72
2024/01/04 02:31:58;;;;;;;3.45;2.20;;;;;;;;;;5061279;28;20040;-72
2024/01/04 02:34:24;;;;;;;3.38;2.40;;;;;;;;;;5047465;28;20039;-72
2024/01/04 02:36:49;;;;;;;3.97;2.83;;;;;;;;;;5064074;28;20045;-71
2024/01/04 02:39:15;;;;;;;3.92;2.58;;;;;;;;;;5056925;28;20048;-72
2024/01/04 02:41:41;;;;;;;3.72;2.58;;;;;;;;;;5077703;28;20511;-72
2024/01/04 02:44:06;;;;;;;3.40;2.55;;;;;;;;;;5048456;28;20145;-72
2024/01/04 02:46:31;;;;;;;3.65;2.40;;;;;;;;;;5035981;28;20064;-71
2024/01/04 02:48:57;;;;;;;3.22;2.35;;;;;;;;;;5055941;28;20544;-71
2024/01/04 02:51:22;;;;;;;3.45;2.38;;;;;;;;;;5072213;28;20037;-71
2024/01/04 02:53:47;;;;;;;3.80;2.40;;;;;;;;;;5041783;28;20038;-71
2024/01/04 02:56:13;;;;;;;3.33;2.30;;;;;;;;;;5049330;28;20037;-71
2024/01/04 02:58:38;;;;;;;3.30;2.35;;;;;;;;;;5057946;28;20044;-71
2024/01/04 03:01:03;;;;;;;4.05;2.35;;;;;;;;;;5064756;28;20052;-70
2024/01/04 03:03:29;;;;;;;3.53;2.60;;;;;;;;;;5042513;28;20037;-71
2024/01/04 03:05:54;;;;;;;3.67;2.38;;;;;;;;;;5049606;28;20133;-71
2024/01/04 03:08:19;;;;;;;4.15;2.38;;;;;;;;;;5048688;28;20068;-71
2024/01/04 03:10:45;;;;;;;3.58;2.42;;;;;;;;;;5047399;28;20061;-71
2024/01/04 03:13:10;;;;;;;3.60;2.67;;;;;;;;;;5035239;28;20061;-71
2024/01/04 03:15:35;;;;;;;4.65;2.60;;;;;;;;;;5048485;28;20033;-71
2024/01/04 03:18:01;;;;;;;3.72;2.47;;;;;;;;;;5046751;28;20082;-71
2024/01/04 03:20:26;;;;;;;3.58;2.40;;;;;;;;;;5050271;28;20055;-71
2024/01/04 03:22:53;;;;;;;3.60;2.78;;;;;;;;;;5049997;28;20071;-71
2024/01/04 03:25:19;;;;;;;3.65;2.42;;;;;;;;;;5052140;28;20041;-71
2024/01/04 03:27:44;;;;;;;3.65;2.40;;;;;;;;;;5040201;28;20038;-71
2024/01/04 03:30:10;;;;;;;3.22;2.10;;;;;;;;;;5047701;28;20453;-71
2024/01/04 03:32:36;;;;;;;3.55;2.65;;;;;;;;;;5062005;28;20042;-71
2024/01/04 03:35:01;;;;;;;3.63;2.53;;;;;;;;;;5040874;28;20121;-71
2024/01/04 03:37:26;;;;;;;4.10;2.60;;;;;;;;;;5056242;28;20817;-71
2024/01/04 03:39:52;;;;;;;3.58;2.08;;;;;;;;;;5046223;28;20037;-71
2024/01/04 03:42:18;;;;;;;3.75;2.30;;;;;;;;;;5053199;28;20097;-71
2024/01/04 03:44:43;;;;;;;3.08;2.10;;;;;;;;;;5052779;28;20032;-71
2024/01/04 03:47:08;;;;;;;3.50;2.60;;;;;;;;;;5055834;28;20558;-71
2024/01/04 03:49:34;;;;;;;3.60;2.33;;;;;;;;;;5046875;28;20453;-71
2024/01/04 03:51:59;;;;;;;3.30;2.30;;;;;;;;;;5051772;28;20515;-71
2024/01/04 03:54:25;;;;;;;4.10;2.70;;;;;;;;;;5048384;28;20021;-70
2024/01/04 03:56:50;;;;;;;3.38;2.30;;;;;;;;;;5047874;28;20060;-70
2024/01/04 03:59:15;;;;;;;2.78;2.20;;;;;;;;;;5054567;28;21463;-71
2024/01/04 04:01:47;;;;;;;2.97;2.28;;;;;;;;;;5055680;28;20037;-71
2024/01/04 04:04:12;;;;;;;3.10;2.10;;;;;;;;;;5052878;28;20045;-71
2024/01/04 04:06:37;;;;;;;2.88;2.10;;;;;;;;;;5054110;28;20565;-71
2024/01/04 04:09:03;;;;;;;2.75;1.92;;;;;;;;;;5056551;28;20025;-71
2024/01/04 04:11:28;;;;;;;3.53;2.40;;;;;;;;;;5063003;28;20569;-71
2024/01/04 04:13:54;;;;;;;3.20;1.98;;;;;;;;;;5051386;28;20058;-71
2024/01/04 04:16:19;;;;;;;3.83;2.25;;;;;;;;;;5037721;28;20477;-70
2024/01/04 04:18:45;;;;;;;3.28;2.33;;;;;;;;;;5056741;28;20067;-71
2024/01/04 04:21:17;;;;;;;3.40;2.15;;;;;;;;;;5059082;28;20033;-71
2024/01/04 04:23:47;;;;;;;3.45;2.20;;;;;;;;;;5028921;28;20511;-71
2024/01/04 04:26:12;;;;;;;3.08;2.20;;;;;;;;;;5053099;28;20126;-71
2024/01/04 04:28:37;;;;;;;2.83;1.98;;;;;;;;;;5055482;28;20174;-71
2024/01/04 04:31:03;;;;;;;3.35;2.20;;;;;;;;;;5066974;28;20067;-71
2024/01/04 04:33:28;;;;;;;3.60;2.20;;;;;;;;;;5055406;28;20059;-71
2024/01/04 04:35:53;;;;;;;3.42;2.38;;;;;;;;;;5054032;28;20021;-71
2024/01/04 04:38:19;;;;;;;2.55;1.75;;;;;;;;;;5054732;28;20052;-71
2024/01/04 04:40:44;;;;;;;2.45;1.95;;;;;;;;;;5068845;28;20665;-71
2024/01/04 04:43:09;;;;;;;3.72;2.70;;;;;;;;;;5049702;28;20053;-71
2024/01/04 04:45:35;;;;;;;3.33;2.50;;;;;;;;;;5050293;28;20118;-71
2024/01/04 04:48:00;;;;;;;3.30;2.05;;;;;;;;;;5050995;28;20107;-71
2024/01/04 04:50:25;;;;;;;3.25;2.30;;;;;;;;;;5066129;28;20025;-72
2024/01/04 04:52:51;;;;;;;3.30;2.38;;;;;;;;;;5052491;28;20033;-72
2024/01/04 04:55:16;;;;;;;2.85;2.13;;;;;;;;;;5030556;28;20044;-72
2024/01/04 04:57:41;;;;;;;2.88;2.00;;;;;;;;;;5053441;28;20064;-72
2024/01/04 05:00:07;;;;;;;3.33;2.15;;;;;;;;;;5055019;28;20033;-72
2024/01/04 05:02:32;;;;;;;3.70;2.10;;;;;;;;;;5069586;28;20044;-71
2024/01/04 05:04:57;;;;;;;2.97;2.00;;;;;;;;;;5055267;28;20124;-71
2024/01/04 05:07:23;;;;;;;3.78;2.38;;;;;;;;;;5046982;28;20049;-72
2024/01/04 05:09:48;;;;;;;3.00;2.03;;;;;;;;;;5036235;28;20428;-71
2024/01/04 05:12:13;;;;;;;3.00;2.20;;;;;;;;;;5048871;28;20048;-71
2024/01/04 05:14:39;;;;;;;3.40;2.42;;;;;;;;;;5061389;28;20500;-72
2024/01/04 05:17:04;;;;;;;4.53;2.10;;;;;;;;;;5048273;28;20033;-71
2024/01/04 05:19:29;;;;;;;2.95;2.17;;;;;;;;;;5042247;28;20064;-71
2024/01/04 05:21:55;;;;;;;3.63;2.35;;;;;;;;;;5061835;28;20029;-71
2024/01/04 05:24:20;;;;;;;3.35;2.25;;;;;;;;;;5047502;28;20135;-72
2024/01/04 05:26:45;;;;;;;2.97;2.25;;;;;;;;;;5049778;28;20599;-72
2024/01/04 05:29:11;;;;;;;3.35;1.92;;;;;;;;;;5040877;28;20388;-72
2024/01/04 05:31:36;;;;;;;3.08;2.33;;;;;;;;;;5061925;28;20036;-72
2024/01/04 05:34:01;;;;;;;3.00;1.98;;;;;;;;;;5053757;28;20361;-71
2024/01/04 05:36:27;;;;;;;3.05;2.00;;;;;;;;;;5048933;28;20513;-71
2024/01/04 05:38:52;;;;;;;2.47;1.88;;;;;;;;;;5042060;28;20045;-71
2024/01/04 05:41:18;;;;;;;3.13;2.05;;;;;;;;;;5057019;28;20041;-71
2024/01/04 05:43:44;;;;;;;3.53;1.90;;;;;;;;;;5053359;28;20036;-71
2024/01/04 05:46:09;;;;;;;2.92;2.03;;;;;;;;;;5045027;28;20138;-70
2024/01/04 05:48:34;;;;;;;3.10;1.98;;;;;;;;;;5050169;28;20044;-70
2024/01/04 05:51:00;;;;;;;3.08;2.08;;;;;;;;;;5048833;28;20071;-70
2024/01/04 05:53:27;;;;;;;2.75;2.00;;;;;;;;;;5053297;28;20033;-70
2024/01/04 05:55:53;;;;;;;4.65;2.10;;;;;;;;;;5048896;28;20178;-72
2024/01/04 05:58:18;;;;;;;5.70;2.42;;;;;;;;;;5042364;28;20403;-71
2024/01/04 06:00:44;;;;;;;4.95;2.28;;;;;;;;;;5044626;28;20055;-71
2024/01/04 06:03:09;;;;;;;3.67;2.22;;;;;;;;;;5050616;28;20535;-71
2024/01/04 06:05:34;;;;;;;5.80;2.33;;;;;;;;;;5046697;28;20056;-71
2024/01/04 06:08:00;;;;;;;8.68;2.30;;;;;;;;;;5041040;28;20538;-71
2024/01/04 06:10:25;;;;;;;6.60;2.22;;;;;;;;;;5040386;28;20424;-71
2024/01/04 06:12:50;;;;;;;6.20;2.60;;;;;;;;;;5046649;28;20029;-71
2024/01/04 06:15:16;;;;;;;7.45;2.60;;;;;;;;;;5047902;28;20037;-71
2024/01/04 06:17:41;;;;;;;7.63;2.63;;;;;;;;;;5051779;28;20056;-71
2024/01/04 06:20:07;;;;;;;5.35;2.10;;;;;;;;;;5045457;28;20042;-70
2024/01/04 06:22:32;;;;;;;8.82;2.53;;;;;;;;;;5050457;28;20134;-70
2024/01/04 06:24:57;;;;;;;11.00;2.65;;;;;;;;;;5073793;28;20060;-72
2024/01/04 06:27:23;;;;;;;8.05;2.80;;;;;;;;;;5065075;28;20175;-72
2024/01/04 06:29:48;;;;;;;9.02;3.30;;;;;;;;;;5069505;28;20117;-72
2024/01/04 06:32:13;;;;;;;9.65;3.35;;;;;;;;;;5071762;28;20041;-74
2024/01/04 06:34:39;;;;;;;11.43;3.10;;;;;;;;;;5060167;28;20120;-73
2024/01/04 06:37:04;;;;;;;11.93;3.25;;;;;;;;;;5049065;28;20029;-73
2024/01/04 06:39:29;;;;;;;11.48;3.10;;;;;;;;;;5043346;28;20088;-70
2024/01/04 06:41:56;;;;;;;9.15;2.85;;;;;;;;;;5044763;28;20079;-71
2024/01/04 06:44:21;;;;;;;5.80;3.03;;;;;;;;;;5050777;28;20037;-71
2024/01/04 06:46:46;;;;;;;9.10;2.83;;;;;;;;;;5046528;28;20040;-71
2024/01/04 06:49:12;;;;;;;8.93;3.33;;;;;;;;;;5047268;28;20025;-71
2024/01/04 06:51:37;;;;;;;8.75;2.95;;;;;;;;;;5047330;28;20182;-70
2024/01/04 06:54:03;;;;;;;7.57;3.05;;;;;;;;;;5046976;28;20420;-71
2024/01/04 06:56:28;;;;;;;8.90;3.00;;;;;;;;;;5056880;28;20177;-71
2024/01/04 06:58:54;;;;;;;6.95;2.95;;;;;;;;;;5035226;28;20041;-71
2024/01/04 07:01:22;;;;;;;10.43;2.85;;;;;;;;;;5044589;28;20130;-72
2024/01/04 07:03:48;;;;;;;10.30;2.88;;;;;;;;;;5051555;28;20045;-71
2024/01/04 07:06:13;;;;;;;11.45;3.10;;;;;;;;;;5048386;28;20091;-71
2024/01/04 07:08:38;;;;;;;9.68;3.00;;;;;;;;;;5051093;28;20033;-72
2024/01/04 07:11:05;;;;;;;6.05;2.78;;;;;;;;;;5060931;28;20063;-73
2024/01/04 07:13:30;;;;;;;8.85;3.40;;;;;;;;;;5046243;28;20029;-74
2024/01/04 07:15:56;;;;;;;11.55;3.10;;;;;;;;;;5056592;28;20039;-73
2024/01/04 07:18:21;;;;;;;7.93;2.85;;;;;;;;;;5056491;28;20036;-73
2024/01/04 07:20:47;;;;;;;9.50;3.40;;;;;;;;;;5053307;28;20080;-73
2024/01/04 07:23:14;;;;;;;8.07;2.80;;;;;;;;;;5033457;28;20724;-73
2024/01/04 07:25:40;;;;;;;8.70;2.92;;;;;;;;;;5057213;28;20036;-74
2024/01/04 07:28:05;;;;;;;8.25;2.90;;;;;;;;;;5044595;28;20538;-74
2024/01/04 07:30:30;;;;;;;8.90;3.40;;;;;;;;;;5061250;28;20594;-72
2024/01/04 07:32:56;;;;;;;6.22;2.83;;;;;;;;;;5046523;28;20037;-71
2024/01/04 07:35:23;;;;;;;9.35;2.78;;;;;;;;;;5058912;28;20107;-70
2024/01/04 07:37:48;;;;;;;8.60;3.05;;;;;;;;;;5050092;28;20061;-71
2024/01/04 07:40:14;;;;;;;7.22;2.92;;;;;;;;;;5051160;28;20037;-70
2024/01/04 07:42:39;;;;;;;9.63;2.53;;;;;;;;;;5053455;28;20109;-72
2024/01/04 07:45:06;;;;;;;8.85;2.85;;;;;;;;;;5056652;28;20037;-73
2024/01/04 07:47:31;;;;;;;9.10;2.67;;;;;;;;;;5047481;28;20061;-73
2024/01/04 07:49:57;;;;;;;7.38;2.72;;;;;;;;;;5035190;28;20126;-74
2024/01/04 07:52:22;;;;;;;6.10;2.85;;;;;;;;;;5041780;28;20136;-72
2024/01/04 07:54:47;;;;;;;6.90;2.80;;;;;;;;;;5045788;28;20600;-73
2024/01/04 07:57:13;;;;;;;7.15;2.50;;;;;;;;;;5047693;28;20059;-71
2024/01/04 07:59:39;;;;;;;7.13;2.80;;;;;;;;;;5048371;28;20038;-72
2024/01/04 08:02:04;;;;;;;7.03;2.88;;;;;;;;;;5038549;28;20455;-72
2024/01/04 08:04:32;;;;;;;5.13;2.42;;;;;;;;;;5050353;28;20071;-72
2024/01/04 08:06:57;;;;;;;7.78;2.60;;;;;;;;;;5053713;28;20114;-73
2024/01/04 08:09:23;;;;;;;7.68;2.80;;;;;;;;;;5049863;28;20483;-74
2024/01/04 08:11:48;;;;;;;7.40;2.90;;;;;;;;;;5054919;28;20150;-74
2024/01/04 08:14:13;;;;;;;11.75;2.50;;;;;;;;;;5060467;28;20059;-72
2024/01/04 08:16:39;;;;;;;6.80;2.45;;;;;;;;;;5052525;28;20476;-73
2024/01/04 08:19:04;;;;;;;7.50;2.58;;;;;;;;;;5052007;28;20049;-74
2024/01/04 08:21:29;;;;;;;8.35;2.72;;;;;;;;;;5055594;28;20032;-74
2024/01/04 08:23:55;;;;;;;7.70;2.63;;;;;;;;;;5058868;28;20127;-74
2024/01/04 08:26:20;;;;;;;7.40;2.63;;;;;;;;;;5055845;28;20145;-73
2024/01/04 08:28:46;;;;;;;6.43;2.65;;;;;;;;;;5051879;28;20033;-73
2024/01/04 08:31:11;;;;;;;8.77;2.65;;;;;;;;;;5053556;28;20036;-72
2024/01/04 08:33:36;;;;;;;5.75;2.95;;;;;;;;;;5050446;28;20032;-72
2024/01/04 08:36:02;;;;;;;5.38;2.42;;;;;;;;;;5075780;28;20567;-72
2024/01/04 08:38:27;;;;;;;9.55;2.92;;;;;;;;;;5060214;28;20044;-73
2024/01/04 08:40:52;;;;;;;8.35;2.72;;;;;;;;;;5045720;28;20051;-73
2024/01/04 08:43:18;;;;;;;5.55;2.58;;;;;;;;;;5034650;28;20127;-74
2024/01/04 08:45:43;;;;;;;5.68;2.38;;;;;;;;;;5064814;28;20029;-73
2024/01/04 08:48:08;;;;;;;4.45;2.20;;;;;;;;;;5049310;28;20102;-72
2024/01/04 08:50:34;;;;;;;4.47;2.10;;;;;;;;;;5047667;28;20032;-72
2024/01/04 08:52:59;;;;;;;6.65;2.70;;;;;;;;;;5039801;28;20041;-72
2024/01/04 08:55:24;;;;;;;5.38;2.55;;;;;;;;;;5053437;28;20678;-72
2024/01/04 08:57:50;;;;;;;4.68;2.40;;;;;;;;;;5047773;28;20041;-73
2024/01/04 09:00:15;;;;;;;6.35;2.30;;;;;;;;;;5036678;28;20504;-73
2024/01/04 09:02:41;;;;;;;4.32;2.50;;;;;;;;;;5073076;28;20037;-72
2024/01/04 09:05:06;;;;;;;5.43;2.60;;;;;;;;;;5074757;28;20036;-72
2024/01/04 09:07:32;;;;;;;3.92;2.13;;;;;;;;;;5051520;28;20044;-73
2024/01/04 09:09:57;;;;;;;7.18;2.47;;;;;;;;;;5050303;28;20029;-71
2024/01/04 09:12:22;;;;;;;5.25;2.42;;;;;;;;;;5059793;28;20037;-72
2024/01/04 09:14:48;;;;;;;6.18;2.30;;;;;;;;;;5059595;28;20044;-72
2024/01/04 09:17:13;;;;;;;4.93;2.10;;;;;;;;;;5045482;28;20129;-72
2024/01/04 09:19:40;;;;;;;5.47;2.30;;;;;;;;;;5038140;28;20029;-71
2024/01/04 09:22:05;;;;;;;4.93;2.20;;;;;;;;;;5051221;28;20095;-73
2024/01/04 09:24:31;;;;;;;4.97;2.30;;;;;;;;;;5049460;28;20547;-74
2024/01/04 09:26:57;;;;;;;5.13;2.28;;;;;;;;;;5056930;28;20026;-73
2024/01/04 09:29:22;;;;;;;5.40;2.60;;;;;;;;;;5055682;28;20040;-73
2024/01/04 09:31:48;;;;;;;4.40;2.03;;;;;;;;;;5062664;28;20097;-74
2024/01/04 09:34:13;;;;;;;4.30;1.90;;;;;;;;;;5060155;28;20041;-71
2024/01/04 09:36:38;;;;;;;4.13;2.03;;;;;;;;;;5059407;28;20029;-72
2024/01/04 09:39:04;;;;;;;4.55;2.20;;;;;;;;;;5054672;28;20041;-72
2024/01/04 09:41:32;;;;;;;7.13;2.20;;;;;;;;;;5062540;28;20121;-73
2024/01/04 09:44:03;;;;;;;3.80;2.10;;;;;;;;;;5048500;28;20531;-73
2024/01/04 09:46:38;;;;;;;7.50;2.40;;;;;;;;;;5037659;28;20052;-73
2024/01/04 09:49:04;;;;;;;4.07;2.00;;;;;;;;;;5039306;28;20020;-72
2024/01/04 09:51:38;;;;;;;4.72;2.30;;;;;;;;;;5047710;28;20158;-72
2024/01/04 09:54:10;;;;;;;4.22;2.38;;;;;;;;;;5055784;28;20047;-73
2024/01/04 09:56:50;;;;;;;4.28;2.10;;;;;;;;;;5049899;28;20061;-71
2024/01/04 09:59:16;;;;;;;3.95;1.95;;;;;;;;;;5049067;28;20094;-74
2024/01/04 10:01:42;;;;;;;6.20;2.13;;;;;;;;;;5050347;28;20056;-73
2024/01/04 10:04:11;;;;;;;4.65;2.30;;;;;;;;;;5046054;28;20134;-74
2024/01/04 10:06:38;;;;;;;3.20;2.05;;;;;;;;;;5061845;28;20033;-73
2024/01/04 10:09:24;;;;;;;4.57;2.20;;;;;;;;;;5050670;28;20140;-73
2024/01/04 10:11:56;;;;;;;3.95;2.20;;;;;;;;;;5049482;28;20029;-74
2024/01/04 10:14:24;;;;;;;4.72;2.47;;;;;;;;;;5059333;28;20040;-74
2024/01/04 10:16:50;;;;;;;4.28;2.25;;;;;;;;;;5052283;28;20040;-74
2024/01/04 10:19:15;;;;;;;4.07;2.40;;;;;;;;;;5032114;28;20040;-73
2024/01/04 10:21:40;;;;;;;3.90;2.30;;;;;;;;;;5050516;28;20131;-73
2024/01/04 10:24:06;;;;;;;5.22;2.08;;;;;;;;;;5050989;28;20037;-72
2024/01/04 10:26:32;;;;;;;4.55;2.08;;;;;;;;;;5044323;28;20025;-73
2024/01/04 10:29:01;;;;;;;3.92;2.10;;;;;;;;;;5048224;28;20029;-73
2024/01/04 10:31:26;;;;;;;5.03;2.13;;;;;;;;;;5053730;28;20348;-73
2024/01/04 10:33:57;;;;;;;3.70;2.05;;;;;;;;;;5060267;28;20037;-73
2024/01/04 10:36:22;;;;;;;4.38;2.25;;;;;;;;;;5060712;28;20052;-73
2024/01/04 10:38:48;;;;;;;3.17;1.98;;;;;;;;;;5069160;28;20052;-73
2024/01/04 10:41:18;;;;;;;4.13;2.42;;;;;;;;;;5052068;28;20041;-74
2024/01/04 10:43:43;;;;;;;4.05;1.98;;;;;;;;;;5049144;28;20056;-73
2024/01/04 10:46:09;;;;;;;6.55;2.20;;;;;;;;;;5051729;28;20038;-74
2024/01/04 10:48:38;;;;;;;3.63;1.85;;;;;;;;;;5052884;28;20116;-74
2024/01/04 10:51:09;;;;;;;4.22;2.35;;;;;;;;;;5056278;28;20498;-74
2024/01/04 10:53:35;;;;;;;4.50;2.22;;;;;;;;;;5046064;28;20047;-80
2024/01/04 10:56:03;;;;;;;3.70;2.05;;;;;;;;;;5041523;28;20033;-75
2024/01/04 10:58:29;;;;;;;3.45;2.10;;;;;;;;;;5060757;28;20523;-72
2024/01/04 11:00:54;;;;;;;4.80;1.90;;;;;;;;;;5046570;28;20029;-75
2024/01/04 11:03:20;;;;;;;4.30;2.13;;;;;;;;;;5067131;28;20045;-74
2024/01/04 11:05:45;;;;;;;6.03;3.10;;;;;;;;;;5050524;28;20051;-71
2024/01/04 11:08:10;;;;;;;4.32;2.47;;;;;;;;;;5064505;28;20147;-72
2024/01/04 11:10:36;;;;;;;3.92;1.95;;;;;;;;;;5053403;28;20060;-74
2024/01/04 11:13:01;;;;;;;3.83;2.42;;;;;;;;;;5056084;28;20094;-73
2024/01/04 11:15:27;;;;;;;5.57;2.38;;;;;;;;;;5055439;28;20144;-74
2024/01/04 11:17:57;;;;;;;4.25;2.10;;;;;;;;;;5043849;28;20131;-73
2024/01/04 11:20:31;;;;;;;4.05;2.20;;;;;;;;;;5035174;28;20056;-74
2024/01/04 11:23:16;;;;;;;4.68;2.22;;;;;;;;;;5054175;28;20037;-71
2024/01/04 11:25:41;;;;;;;3.95;2.10;;;;;;;;;;5061307;28;20045;-73
2024/01/04 11:28:08;;;;;;;4.78;2.22;;;;;;;;;;5056974;28;20032;-75
2024/01/04 11:30:33;;;;;;;4.72;2.22;;;;;;;;;;5048607;28;20028;-74
2024/01/04 11:32:59;;;;;;;3.72;1.92;;;;;;;;;;5052702;28;20033;-73
2024/01/04 11:35:25;;;;;;;4.30;2.25;;;;;;;;;;5052306;28;20025;-73
2024/01/04 11:37:51;;;;;;;4.00;2.30;;;;;;;;;;5060632;28;20035;-72
2024/01/04 11:40:23;;;;;;;4.20;2.22;;;;;;;;;;5051629;28;20029;-72
2024/01/04 11:42:49;;;;;;;5.32;2.30;;;;;;;;;;5045835;28;20036;-73
2024/01/04 11:45:17;;;;;;;9.80;4.13;;;;;;;;;;5063372;28;20458;-73
2024/01/04 11:47:46;;;;;;;6.57;3.08;;;;;;;;;;5051394;28;20033;-74
2024/01/04 11:50:18;;;;;;;4.25;2.38;;;;;;;;;;5040742;28;20044;-72
2024/01/04 11:52:45;;;;;;;5.05;2.40;;;;;;;;;;5036907;28;20028;-72
2024/01/04 11:55:12;;;;;;;5.05;2.50;;;;;;;;;;5051337;28;20033;-72
2024/01/04 11:57:38;;;;;;;5.22;2.85;;;;;;;;;;5046636;28;20052;-73
2024/01/04 12:00:23;;;;;;;7.80;4.35;;;;;;;;;;5047375;28;20116;-72
2024/01/04 12:02:49;;;;;;;6.80;3.15;;;;;;;;;;5046183;28;20514;-73
2024/01/04 12:05:18;;;;;;;5.72;3.50;;;;;;;;;;5047657;28;20040;-72
2024/01/04 12:07:43;;;;;;;5.75;3.85;;;;;;;;;;5058755;28;20534;-74
2024/01/04 12:10:09;;;;;;;5.82;3.60;;;;;;;;;;5052703;28;20040;-72
2024/01/04 12:12:38;;;;;;;6.57;3.70;;;;;;;;;;5039767;28;20033;-72
2024/01/04 12:15:04;;;;;;;6.10;3.53;;;;;;;;;;5056862;28;20040;-71
2024/01/04 12:17:30;;;;;;;7.55;3.38;;;;;;;;;;5060789;28;20040;-73
2024/01/04 12:19:56;;;;;;;6.50;3.30;;;;;;;;;;5052710;28;20036;-71
2024/01/04 12:22:21;;;;;;;7.65;3.13;;;;;;;;;;5048173;28;20167;-74
2024/01/04 12:24:47;;;;;;;6.32;2.83;;;;;;;;;;5052176;28;20045;-73
2024/01/04 12:27:13;;;;;;;5.72;3.03;;;;;;;;;;5039216;28;20029;-72
2024/01/04 12:29:42;;;;;;;5.40;2.85;;;;;;;;;;5051158;28;20040;-72
2024/01/04 12:32:07;;;;;;;4.93;2.83;;;;;;;;;;5056142;28;20034;-72
2024/01/04 12:34:32;;;;;;;5.85;2.95;;;;;;;;;;5050436;28;20681;-73
2024/01/04 12:37:06;;;;;;;5.72;3.05;;;;;;;;;;5062269;28;20047;-72
2024/01/04 12:39:32;;;;;;;4.32;3.00;;;;;;;;;;5050657;28;20041;-72
2024/01/04 12:41:59;;;;;;;4.18;2.80;;;;;;;;;;5059950;28;20108;-74
2024/01/04 12:44:24;;;;;;;6.43;2.72;;;;;;;;;;5055863;28;20094;-72
2024/01/04 12:46:50;;;;;;;4.28;2.53;;;;;;;;;;5053586;28;20041;-72
2024/01/04 12:49:15;;;;;;;3.95;2.63;;;;;;;;;;5051453;28;20073;-73
2024/01/04 12:51:41;;;;;;;3.72;2.35;;;;;;;;;;5059464;28;20112;-73
2024/01/04 12:54:07;;;;;;;4.55;2.50;;;;;;;;;;5057922;28;20106;-74
2024/01/04 12:56:32;;;;;;;4.03;2.50;;;;;;;;;;5037633;28;20031;-74
2024/01/04 12:59:01;;;;;;;5.00;2.50;;;;;;;;;;5053072;28;20041;-72
2024/01/04 13:01:28;;;;;;;5.38;2.45;;;;;;;;;;5050581;28;20041;-72
2024/01/04 13:03:55;;;;;;;4.72;2.55;;;;;;;;;;5043088;28;20102;-71
2024/01/04 13:06:20;;;;;;;5.80;2.55;;;;;;;;;;5051547;28;20033;-73
2024/01/04 13:08:46;;;;;;;4.40;2.20;;;;;;;;;;5055022;28;20041;-73
2024/01/04 13:11:11;;;;;;;3.45;2.20;;;;;;;;;;5052236;28;20172;-73
2024/01/04 13:13:37;;;;;;;3.45;1.20;;;;;;;;;;5051413;28;20060;-76
2024/01/04 13:16:04;;;;;;;2.88;1.50;;;;;;;;;;5060143;28;20044;-74
2024/01/04 13:18:29;;;;;;;4.20;1.70;;;;;;;;;;5051229;28;20036;-75
2024/01/04 13:20:55;;;;;;;3.65;1.67;;;;;;;;;;5053392;28;20058;-75
2024/01/04 13:23:20;;;;;;;3.88;1.48;;;;;;;;;;5055907;28;20496;-76
2024/01/04 13:25:46;;;;;;;3.20;1.73;;;;;;;;;;5054402;28;20114;-75
2024/01/04 13:28:11;;;;;;;2.60;1.55;;;;;;;;;;5060905;28;20037;-76
2024/01/04 13:30:36;;;;;;;2.92;1.40;;;;;;;;;;5053195;28;20487;-76
2024/01/04 13:33:03;;;;;;;3.83;1.85;;;;;;;;;;5056320;28;20115;-76
2024/01/04 13:35:28;;;;;;;5.07;1.33;;;;;;;;;;5061916;28;20044;-74
2024/01/04 13:37:53;;;;;;;3.08;1.60;;;;;;;;;;5053696;28;20041;-74
2024/01/04 13:40:19;;;;;;;3.50;1.60;;;;;;;;;;5053288;28;20041;-74
2024/01/04 13:42:45;;;;;;;3.60;1.67;;;;;;;;;;5059007;28;20029;-74
2024/01/04 13:45:10;;;;;;;2.83;1.60;;;;;;;;;;5054941;28;20033;-75
2024/01/04 13:47:38;;;;;;;3.25;1.40;;;;;;;;;;5059158;28;20513;-74
2024/01/04 13:50:03;;;;;;;3.53;1.60;;;;;;;;;;5056775;28;20040;-76
2024/01/04 13:52:29;;;;;;;3.25;1.50;;;;;;;;;;5057001;28;20039;-76
2024/01/04 13:54:54;;;;;;;3.58;1.73;;;;;;;;;;5052991;28;20036;-75
2024/01/04 13:57:19;;;;;;;2.90;1.38;;;;;;;;;;5054532;28;20044;-75
2024/01/04 13:59:45;;;;;;;2.15;1.20;;;;;;;;;;5050875;28;20044;-76
2024/01/04 14:02:10;;;;;;;3.50;1.40;;;;;;;;;;5050521;28;20044;-77
2024/01/04 14:04:35;;;;;;;3.38;1.40;;;;;;;;;;5048387;28;20523;-75
2024/01/04 14:07:01;;;;;;;2.85;1.30;;;;;;;;;;5040074;28;20032;-75
2024/01/04 14:09:26;;;;;;;4.43;1.70;;;;;;;;;;5048852;28;20095;-76
2024/01/04 14:11:52;;;;;;;3.88;1.58;;;;;;;;;;5035261;28;20033;-76
2024/01/04 14:14:17;;;;;;;4.10;1.60;;;;;;;;;;5050577;28;20459;-75
2024/01/04 14:16:42;;;;;;;3.17;1.45;;;;;;;;;;5053983;28;20042;-77
2024/01/04 14:19:08;;;;;;;4.70;1.60;;;;;;;;;;5057310;28;20052;-76
2024/01/04 14:21:33;;;;;;;2.70;1.30;;;;;;;;;;5056263;28;20032;-75
2024/01/04 14:23:59;;;;;;;2.72;1.50;;;;;;;;;;5032918;28;20360;-76
2024/01/04 14:26:24;;;;;;;3.28;1.50;;;;;;;;;;5064495;28;20033;-76
2024/01/04 14:28:49;;;;;;;2.63;1.45;;;;;;;;;;5057192;28;20033;-78
2024/01/04 14:31:14;;;;;;;3.33;1.70;;;;;;;;;;5036892;28;20033;-77
2024/01/04 14:33:41;;;;;;;2.50;1.40;;;;;;;;;;5050430;28;20033;-77
2024/01/04 14:36:09;;;;;;;3.20;1.40;;;;;;;;;;5049183;28;20033;-78